Time;durP1;ratioP1;P1;durP2;ratioP2;P2;SDS_P1;SDS_P2;PMS_P1;PMS_P2;Temp;Humidity;BMP_temperature;BMP_pressure;BME280_temperature;BME280_humidity;BME280_pressure;Samples;Min_cycle;Max_cycle;Signal;HPM_P1;HPM_P2
2022/02/01 00:00:56;;;;;;;20.25;9.57;;;1.10;99.90;;;;;;5124349;27;20035;-55
2022/02/01 00:03:23;;;;;;;21.23;9.35;;;1.10;99.90;;;;;;5122369;27;20027;-54
2022/02/01 00:11:12;;;;;;;15.35;9.10;;;1.30;99.90;;;;;;5121971;27;20688;-51
2022/02/01 00:14:06;;;;;;;22.75;10.38;;;1.30;99.90;;;;;;5121375;27;20146;-49
2022/02/01 00:35:35;;;;;;;19.85;8.30;;;1.40;99.90;;;;;;5119812;27;20030;-52
2022/02/01 00:38:11;;;;;;;14.43;7.65;;;1.50;99.90;;;;;;5121672;27;20031;-52
2022/02/01 00:40:38;;;;;;;15.30;7.18;;;1.50;99.90;;;;;;5102590;27;20031;-52
2022/02/01 00:43:06;;;;;;;17.90;8.43;;;1.50;99.90;;;;;;5120831;27;20448;-54
2022/02/01 00:45:32;;;;;;;17.60;8.23;;;1.50;99.90;;;;;;5120651;27;20022;-53
2022/02/01 00:47:58;;;;;;;13.95;7.68;;;1.50;99.90;;;;;;5120378;27;20045;-51
2022/02/01 00:50:23;;;;;;;16.20;7.25;;;1.50;99.90;;;;;;5120849;27;20028;-50
2022/02/01 00:52:49;;;;;;;12.88;6.45;;;1.50;99.90;;;;;;5119973;27;20027;-51
2022/02/01 00:55:15;;;;;;;17.40;7.32;;;1.50;99.90;;;;;;5120524;27;20036;-55
2022/02/01 00:57:40;;;;;;;15.15;5.90;;;1.60;99.90;;;;;;5120470;27;20035;-53
2022/02/01 01:00:09;;;;;;;14.55;6.15;;;1.60;99.90;;;;;;5120315;27;20046;-50
2022/02/01 01:02:35;;;;;;;12.05;6.32;;;1.60;99.90;;;;;;5119471;27;20028;-54
2022/02/01 01:05:01;;;;;;;10.48;5.47;;;1.60;99.90;;;;;;5102633;27;20026;-54
2022/02/01 01:07:26;;;;;;;11.80;5.32;;;1.60;99.90;;;;;;5120465;27;20031;-54
2022/02/01 01:09:54;;;;;;;12.23;5.03;;;1.70;99.90;;;;;;5120301;27;20035;-51
2022/02/01 01:12:19;;;;;;;10.10;4.68;;;1.70;99.90;;;;;;5120112;27;20022;-52
2022/02/01 01:17:53;;;;;;;9.27;3.60;;;1.80;99.90;;;;;;5120063;27;20027;-53
2022/02/01 01:44:53;;;;;;;3.75;2.03;;;1.90;99.90;;;;;;5120097;27;20523;-51
2022/02/01 01:53:17;;;;;;;9.75;2.75;;;1.90;99.90;;;;;;5119823;27;20076;-53
2022/02/01 01:55:49;;;;;;;11.80;2.00;;;1.80;99.90;;;;;;5119352;27;20514;-50
2022/02/01 01:58:17;;;;;;;8.98;1.83;;;1.80;99.90;;;;;;5098756;27;20085;-55
2022/02/01 02:03:17;;;;;;;9.40;1.77;;;1.80;99.90;;;;;;5117211;27;20848;-54
2022/02/01 02:05:43;;;;;;;8.60;1.27;;;1.80;99.90;;;;;;5119168;27;20096;-53
2022/02/01 02:08:09;;;;;;;9.48;2.03;;;1.80;99.90;;;;;;5119644;27;20597;-55
2022/02/01 02:10:45;;;;;;;13.45;2.38;;;1.70;99.90;;;;;;5119257;27;20684;-53
2022/02/01 02:15:55;;;;;;;5.18;1.52;;;1.70;99.90;;;;;;5120520;27;20038;-51
2022/02/01 02:18:22;;;;;;;18.30;2.00;;;1.70;99.90;;;;;;5119717;27;20031;-55
2022/02/01 02:20:48;;;;;;;9.18;2.28;;;1.60;99.90;;;;;;5119849;27;20032;-52
2022/02/01 02:23:14;;;;;;;6.05;1.63;;;1.60;99.90;;;;;;5119341;27;20041;-53
2022/02/01 02:25:40;;;;;;;8.63;1.95;;;1.60;99.90;;;;;;5117704;27;20106;-55
2022/02/01 02:28:08;;;;;;;7.28;1.35;;;1.60;99.90;;;;;;5117572;27;20463;-51
2022/02/01 02:30:34;;;;;;;9.63;2.05;;;1.60;99.90;;;;;;5118726;27;20490;-51
2022/02/01 02:33:05;;;;;;;8.32;1.63;;;1.50;99.90;;;;;;5118935;27;20019;-57
2022/02/01 02:35:35;;;;;;;13.13;2.42;;;1.50;99.90;;;;;;5118936;28;20104;-55
2022/02/01 02:38:10;;;;;;;6.45;1.27;;;1.50;99.90;;;;;;5118760;27;20114;-52
2022/02/01 02:46:25;;;;;;;7.45;2.15;;;1.50;99.90;;;;;;5118031;28;20037;-50
2022/02/01 02:48:52;;;;;;;9.63;2.00;;;1.50;99.90;;;;;;5119281;28;20116;-52
2022/02/01 02:51:18;;;;;;;5.85;2.35;;;1.50;99.90;;;;;;5118217;28;20040;-55
2022/02/01 02:53:44;;;;;;;9.25;2.08;;;1.50;99.90;;;;;;5118828;28;20612;-52
2022/02/01 02:56:09;;;;;;;15.95;2.92;;;1.50;99.90;;;;;;5118954;28;20035;-52
2022/02/01 02:58:35;;;;;;;10.07;2.88;;;1.50;99.90;;;;;;5119133;28;20027;-51
2022/02/01 03:01:00;;;;;;;8.20;2.15;;;1.50;99.90;;;;;;5120219;28;20036;-52
2022/02/01 03:03:26;;;;;;;11.02;2.08;;;1.50;99.90;;;;;;5118584;28;20023;-57
2022/02/01 03:05:52;;;;;;;12.65;2.50;;;1.50;99.90;;;;;;5100601;28;20020;-51
2022/02/01 03:08:18;;;;;;;7.80;2.03;;;1.50;99.90;;;;;;5118506;28;20035;-54
2022/02/01 03:10:45;;;;;;;5.90;1.80;;;1.50;99.90;;;;;;5118808;28;20032;-51
2022/02/01 03:13:15;;;;;;;8.73;2.00;;;1.50;99.90;;;;;;5118084;28;20050;-50
2022/02/01 03:20:55;;;;;;;17.10;3.00;;;1.50;99.90;;;;;;5118098;28;20029;-55
2022/02/01 03:23:20;;;;;;;12.95;2.25;;;1.50;99.90;;;;;;5117576;28;20497;-51
2022/02/01 03:25:46;;;;;;;10.18;2.00;;;1.50;99.90;;;;;;5121494;27;20546;-51
2022/02/01 03:28:12;;;;;;;11.43;2.80;;;1.60;99.90;;;;;;5121597;27;20043;-52
2022/02/01 03:30:37;;;;;;;8.65;2.00;;;1.60;99.90;;;;;;5121858;27;20028;-51
2022/02/01 03:33:03;;;;;;;12.68;2.33;;;1.50;99.90;;;;;;5122075;27;20501;-53
2022/02/01 03:35:28;;;;;;;12.40;2.35;;;1.60;99.90;;;;;;5121024;27;20035;-51
2022/02/01 03:37:55;;;;;;;12.35;2.40;;;1.60;99.90;;;;;;5122285;27;20486;-54
2022/02/01 03:40:21;;;;;;;8.90;1.98;;;1.60;99.90;;;;;;5122211;27;20505;-53
2022/02/01 03:42:47;;;;;;;13.95;2.38;;;1.60;99.90;;;;;;5121649;27;20052;-52
2022/02/01 03:45:13;;;;;;;9.07;2.25;;;1.60;99.90;;;;;;5121999;27;20039;-52
2022/02/01 03:47:38;;;;;;;10.95;2.40;;;1.70;99.90;;;;;;5122204;27;20027;-50
2022/02/01 03:50:09;;;;;;;7.63;2.15;;;1.60;99.90;;;;;;5122492;27;20031;-52
2022/02/01 03:52:35;;;;;;;15.73;2.28;;;1.70;99.90;;;;;;5121632;27;20027;-50
2022/02/01 03:55:01;;;;;;;9.63;2.42;;;1.70;99.90;;;;;;5122596;27;20099;-55
2022/02/01 03:57:27;;;;;;;8.48;2.22;;;1.70;99.90;;;;;;5121839;27;20035;-52
2022/02/01 03:59:53;;;;;;;10.10;2.28;;;1.70;99.90;;;;;;5121979;27;20035;-50
2022/02/01 04:02:18;;;;;;;14.38;2.33;;;1.70;99.90;;;;;;5121581;27;20035;-54
2022/02/01 04:04:47;;;;;;;10.73;2.75;;;1.80;99.90;;;;;;5121957;27;20016;-54
2022/02/01 04:07:13;;;;;;;8.80;2.10;;;1.70;99.90;;;;;;5121797;27;20011;-51
2022/02/01 04:09:38;;;;;;;13.13;2.67;;;1.80;99.90;;;;;;5121782;27;20027;-56
2022/02/01 04:12:05;;;;;;;8.40;1.67;;;1.80;99.90;;;;;;5121805;27;20015;-56
2022/02/01 04:14:33;;;;;;;7.50;2.20;;;1.70;99.90;;;;;;5121744;27;20031;-52
2022/02/01 04:17:02;;;;;;;11.70;2.03;;;1.70;99.90;;;;;;5122137;27;20023;-54
2022/02/01 04:19:30;;;;;;;12.30;2.15;;;1.70;99.90;;;;;;5121745;27;20028;-53
2022/02/01 04:22:02;;;;;;;6.90;2.17;;;1.70;99.90;;;;;;5121575;27;20493;-56
2022/02/01 04:24:36;;;;;;;14.73;2.70;;;1.70;99.90;;;;;;5120608;27;20075;-53
2022/02/01 04:27:01;;;;;;;9.45;1.85;;;1.70;99.90;;;;;;5123054;27;20027;-55
2022/02/01 04:29:28;;;;;;;8.43;2.38;;;1.70;99.90;;;;;;5121750;27;20031;-52
2022/02/01 04:31:54;;;;;;;11.50;2.05;;;1.70;99.90;;;;;;5120517;27;20096;-50
2022/02/01 04:34:19;;;;;;;9.55;2.05;;;1.70;99.90;;;;;;5120585;27;20490;-54
2022/02/01 04:36:45;;;;;;;7.70;2.25;;;1.70;99.90;;;;;;5101954;27;20032;-53
2022/02/01 04:39:11;;;;;;;15.60;2.40;;;1.70;99.90;;;;;;5121397;27;20405;-55
2022/02/01 04:41:37;;;;;;;9.27;2.42;;;1.70;99.90;;;;;;5120372;27;20035;-49
2022/02/01 04:44:03;;;;;;;11.65;3.45;;;1.70;99.90;;;;;;5120383;27;20034;-51
2022/02/01 04:46:29;;;;;;;9.00;2.17;;;1.70;99.90;;;;;;5120859;27;20062;-53
2022/02/01 04:48:59;;;;;;;12.60;1.73;;;1.70;99.90;;;;;;5121090;27;20043;-51
2022/02/01 04:51:25;;;;;;;9.25;2.17;;;1.70;99.90;;;;;;5120291;27;20024;-53
2022/02/01 04:53:51;;;;;;;12.52;1.90;;;1.70;99.90;;;;;;5120630;27;20024;-52
2022/02/01 04:56:17;;;;;;;12.25;1.83;;;1.70;99.90;;;;;;5122614;27;20099;-50
2022/02/01 04:58:44;;;;;;;10.20;2.50;;;1.70;99.90;;;;;;5121484;27;20146;-53
2022/02/01 05:01:10;;;;;;;8.07;1.63;;;1.80;99.90;;;;;;5120195;27;20042;-54
2022/02/01 05:03:36;;;;;;;10.30;2.25;;;1.80;99.90;;;;;;5119881;27;20065;-55
2022/02/01 05:06:03;;;;;;;13.13;3.13;;;1.80;99.90;;;;;;5119923;27;20059;-51
2022/02/01 05:08:28;;;;;;;14.68;2.38;;;1.80;99.90;;;;;;5102052;27;20023;-52
2022/02/01 05:10:54;;;;;;;21.25;2.65;;;1.90;99.90;;;;;;5120056;27;20030;-54
2022/02/01 05:15:50;;;;;;;13.30;2.42;;;1.90;99.90;;;;;;5120239;27;20093;-52
2022/02/01 05:18:22;;;;;;;10.18;2.30;;;2.00;99.90;;;;;;5119355;27;20054;-52
2022/02/01 05:20:56;;;;;;;13.43;3.22;;;2.00;99.90;;;;;;5119418;27;20089;-52
2022/02/01 05:23:23;;;;;;;13.05;2.20;;;2.00;99.90;;;;;;5118807;27;20029;-52
2022/02/01 05:25:50;;;;;;;8.85;2.67;;;2.00;99.90;;;;;;5119403;27;20026;-53
2022/02/01 05:28:17;;;;;;;15.95;2.65;;;2.10;99.90;;;;;;5119781;27;20008;-55
2022/02/01 05:30:43;;;;;;;12.38;2.45;;;2.10;99.90;;;;;;5120010;27;20019;-53
2022/02/01 05:33:08;;;;;;;7.47;2.65;;;2.10;99.90;;;;;;5120058;27;20073;-52
2022/02/01 05:35:34;;;;;;;19.15;3.08;;;2.10;99.90;;;;;;5120510;27;20030;-50
2022/02/01 05:38:00;;;;;;;14.18;2.72;;;2.20;99.90;;;;;;5119926;27;20027;-54
2022/02/01 05:40:27;;;;;;;14.05;3.13;;;2.20;99.90;;;;;;5120123;27;20031;-51
2022/02/01 05:43:01;;;;;;;9.90;2.50;;;2.20;99.90;;;;;;5120032;27;20114;-51
2022/02/01 05:45:27;;;;;;;10.23;3.15;;;2.10;99.90;;;;;;5117969;27;20030;-53
2022/02/01 05:47:53;;;;;;;10.27;3.22;;;2.10;99.90;;;;;;5098883;27;20012;-50
2022/02/01 05:50:20;;;;;;;17.98;2.63;;;2.20;99.90;;;;;;5118371;27;20046;-50
2022/02/01 05:52:45;;;;;;;14.27;5.43;;;2.20;99.90;;;;;;5118612;27;20398;-56
2022/02/01 05:55:12;;;;;;;7.70;2.30;;;2.20;99.90;;;;;;5119394;27;20023;-53
2022/02/01 05:57:38;;;;;;;17.92;2.83;;;2.30;99.90;;;;;;5119018;27;20113;-53
2022/02/01 06:00:06;;;;;;;9.48;2.28;;;2.30;99.90;;;;;;5119456;27;20081;-56
2022/02/01 06:02:31;;;;;;;10.95;1.95;;;2.20;99.90;;;;;;5119101;27;20023;-52
2022/02/01 06:04:57;;;;;;;12.52;2.55;;;2.30;99.90;;;;;;5100630;27;20026;-53
2022/02/01 06:07:23;;;;;;;10.07;2.70;;;2.30;99.90;;;;;;5119361;27;20035;-53
2022/02/01 06:09:48;;;;;;;7.75;1.98;;;2.30;99.90;;;;;;5119227;27;20023;-53
2022/02/01 06:12:14;;;;;;;9.13;2.25;;;2.20;99.90;;;;;;5119633;27;20502;-52
2022/02/01 06:14:39;;;;;;;11.45;2.78;;;2.20;99.90;;;;;;5119479;27;20019;-55
2022/02/01 06:17:06;;;;;;;6.88;1.65;;;2.30;99.90;;;;;;5119602;27;20042;-56
2022/02/01 06:19:34;;;;;;;5.28;1.30;;;2.20;99.90;;;;;;5118078;27;20024;-55
2022/02/01 06:22:01;;;;;;;9.45;2.05;;;2.30;99.90;;;;;;5100694;27;20046;-50
2022/02/01 06:24:27;;;;;;;10.25;2.28;;;2.30;99.90;;;;;;5119538;27;20023;-53
2022/02/01 06:26:52;;;;;;;8.57;2.10;;;2.30;99.90;;;;;;5119293;27;20476;-54
2022/02/01 06:29:18;;;;;;;11.40;1.65;;;2.30;99.90;;;;;;5119022;27;20054;-53
2022/02/01 06:31:43;;;;;;;11.88;2.92;;;2.30;99.90;;;;;;5119192;27;20076;-52
2022/02/01 06:34:09;;;;;;;6.60;1.85;;;2.30;99.90;;;;;;5118502;27;20023;-55
2022/02/01 06:36:34;;;;;;;14.25;2.17;;;2.30;99.90;;;;;;5119299;27;20023;-56
2022/02/01 06:39:00;;;;;;;21.75;2.63;;;2.30;99.90;;;;;;5118861;27;20544;-55
2022/02/01 06:41:26;;;;;;;9.88;1.92;;;2.40;99.90;;;;;;5120169;27;20551;-57
2022/02/01 06:43:51;;;;;;;5.03;1.42;;;2.30;99.90;;;;;;5118118;28;20041;-54
2022/02/01 06:46:17;;;;;;;11.25;2.58;;;2.40;99.90;;;;;;5099874;28;20016;-53
2022/02/01 06:48:42;;;;;;;15.68;2.63;;;2.40;99.90;;;;;;5118957;28;20027;-52
2022/02/01 06:51:09;;;;;;;6.82;2.42;;;2.40;99.90;;;;;;5119181;28;20019;-53
2022/02/01 06:53:37;;;;;;;9.30;1.80;;;2.40;99.90;;;;;;5118204;28;20065;-53
2022/02/01 06:56:08;;;;;;;8.38;2.35;;;2.40;99.90;;;;;;5118410;28;20096;-52
2022/02/01 06:58:34;;;;;;;11.48;1.92;;;2.40;99.90;;;;;;5118343;27;20633;-53
2022/02/01 07:01:00;;;;;;;11.30;1.40;;;2.40;99.90;;;;;;5122549;27;20048;-53
2022/02/01 07:03:26;;;;;;;10.10;1.88;;;2.40;99.90;;;;;;5121191;27;20032;-56
2022/02/01 07:05:52;;;;;;;18.40;2.47;;;2.40;99.90;;;;;;5122275;27;20427;-51
2022/02/01 07:08:18;;;;;;;9.70;1.67;;;2.40;99.90;;;;;;5122008;27;20433;-56
2022/02/01 07:10:43;;;;;;;5.45;1.42;;;2.40;99.90;;;;;;5123218;27;20019;-53
2022/02/01 07:13:09;;;;;;;7.13;2.35;;;2.40;99.90;;;;;;5122953;27;20030;-55
2022/02/01 07:15:35;;;;;;;9.27;1.95;;;2.40;99.90;;;;;;5122303;27;20016;-52
2022/02/01 07:18:00;;;;;;;10.48;1.80;;;2.40;99.90;;;;;;5122689;27;20031;-56
2022/02/01 07:20:26;;;;;;;7.95;1.95;;;2.40;99.90;;;;;;5122638;27;20032;-55
2022/02/01 07:22:52;;;;;;;7.28;1.80;;;2.40;99.90;;;;;;5121618;27;20031;-57
2022/02/01 07:25:30;;;;;;;4.57;1.63;;;2.40;99.90;;;;;;5122698;27;20615;-54
2022/02/01 07:28:01;;;;;;;10.27;1.73;;;2.40;99.90;;;;;;5122221;27;20076;-57
2022/02/01 07:30:27;;;;;;;6.78;1.73;;;2.40;99.90;;;;;;5122813;27;20024;-56
2022/02/01 07:32:53;;;;;;;9.10;1.52;;;2.40;99.90;;;;;;5121259;27;20026;-54
2022/02/01 07:35:21;;;;;;;12.48;1.83;;;2.40;99.90;;;;;;5122462;27;20030;-56
2022/02/01 07:37:48;;;;;;;7.55;1.92;;;2.50;99.90;;;;;;5122608;27;20019;-56
2022/02/01 07:40:14;;;;;;;9.38;2.10;;;2.50;99.90;;;;;;5119480;27;20506;-54
2022/02/01 07:42:40;;;;;;;7.60;2.22;;;2.50;99.90;;;;;;5120461;27;20054;-54
2022/02/01 07:45:07;;;;;;;8.55;2.47;;;2.50;99.90;;;;;;5102429;27;20055;-57
2022/02/01 07:47:33;;;;;;;9.85;2.00;;;2.50;99.90;;;;;;5122019;27;20016;-53
2022/02/01 07:49:59;;;;;;;9.63;2.90;;;2.60;99.90;;;;;;5121086;27;20401;-58
2022/02/01 07:52:25;;;;;;;9.73;2.17;;;2.50;99.90;;;;;;5121043;27;20023;-54
2022/02/01 07:54:50;;;;;;;5.93;1.50;;;2.50;99.90;;;;;;5121976;27;20386;-53
2022/02/01 07:57:16;;;;;;;9.43;2.72;;;2.60;99.90;;;;;;5121512;27;20428;-55
2022/02/01 07:59:42;;;;;;;12.98;2.30;;;2.60;99.90;;;;;;5121333;27;20444;-54
2022/02/01 08:02:18;;;;;;;6.45;2.42;;;2.50;99.90;;;;;;5121419;27;20106;-58
2022/02/01 08:04:45;;;;;;;13.75;2.97;;;2.50;99.90;;;;;;5121795;27;20022;-53
2022/02/01 08:07:10;;;;;;;3.75;1.30;;;2.60;99.90;;;;;;5122203;27;20019;-56
2022/02/01 08:09:40;;;;;;;9.38;2.30;;;2.60;99.90;;;;;;5121351;27;20012;-52
2022/02/01 08:12:15;;;;;;;8.00;2.33;;;2.60;99.90;;;;;;5121272;27;20266;-53
2022/02/01 08:17:37;;;;;;;8.23;2.45;;;2.60;99.90;;;;;;5118406;27;20136;-54
2022/02/01 08:20:06;;;;;;;8.43;2.45;;;2.70;99.90;;;;;;5122317;27;20023;-54
2022/02/01 08:24:57;;;;;;;7.72;1.98;;;2.70;99.90;;;;;;5122000;27;20102;-51
2022/02/01 08:27:23;;;;;;;10.57;2.00;;;2.70;99.90;;;;;;5120494;27;20034;-53
2022/02/01 08:29:48;;;;;;;9.25;2.17;;;2.80;99.90;;;;;;5120665;27;20020;-56
2022/02/01 08:32:14;;;;;;;4.32;2.17;;;2.80;99.90;;;;;;5120098;27;20034;-55
2022/02/01 08:34:40;;;;;;;7.88;1.75;;;2.80;99.90;;;;;;5119895;27;20102;-54
2022/02/01 08:37:05;;;;;;;9.65;2.22;;;2.80;99.90;;;;;;5121042;27;20482;-52
2022/02/01 08:39:31;;;;;;;9.02;2.05;;;2.90;99.90;;;;;;5120179;27;20024;-56
2022/02/01 08:41:56;;;;;;;5.63;2.22;;;2.90;99.90;;;;;;5120690;27;20032;-55
2022/02/01 08:44:27;;;;;;;10.55;2.10;;;2.90;99.90;;;;;;5120043;27;20031;-54
2022/02/01 08:46:55;;;;;;;10.15;1.95;;;2.90;99.90;;;;;;5120853;27;20019;-56
2022/02/01 08:49:20;;;;;;;10.23;2.88;;;3.00;99.90;;;;;;5121119;27;20059;-55
2022/02/01 08:51:56;;;;;;;7.75;1.90;;;3.00;99.90;;;;;;5119714;27;20104;-56
2022/02/01 08:54:25;;;;;;;6.47;2.65;;;3.00;99.90;;;;;;5103136;27;20164;-55
2022/02/01 08:59:35;;;;;;;9.88;2.03;;;3.00;99.90;;;;;;5121539;27;20402;-55
2022/02/01 09:02:01;;;;;;;12.55;2.53;;;3.10;99.90;;;;;;5121059;27;20019;-52
2022/02/01 09:04:27;;;;;;;9.50;2.75;;;3.10;99.90;;;;;;5118809;27;20026;-50
2022/02/01 09:06:52;;;;;;;9.45;2.47;;;3.10;99.90;;;;;;5120001;27;20031;-53
2022/02/01 09:09:18;;;;;;;5.90;1.58;;;3.10;99.90;;;;;;5118822;27;20153;-55
2022/02/01 09:11:45;;;;;;;5.68;2.63;;;3.20;99.90;;;;;;5120349;27;20418;-53
2022/02/01 09:14:11;;;;;;;6.45;1.98;;;3.20;99.90;;;;;;5119477;27;20100;-55
2022/02/01 09:16:37;;;;;;;10.77;3.38;;;3.20;99.90;;;;;;5119864;27;20609;-52
2022/02/01 09:19:02;;;;;;;11.05;2.92;;;3.30;99.90;;;;;;5119709;27;20030;-53
2022/02/01 09:21:28;;;;;;;10.70;2.58;;;3.40;99.90;;;;;;5120073;27;20513;-59
2022/02/01 09:23:53;;;;;;;8.25;2.70;;;3.40;99.90;;;;;;5117632;27;20019;-55
2022/02/01 09:26:19;;;;;;;9.15;2.55;;;3.40;99.90;;;;;;5120121;27;20138;-56
2022/02/01 09:28:46;;;;;;;6.75;2.13;;;3.40;99.90;;;;;;5119811;27;20072;-53
2022/02/01 09:31:12;;;;;;;5.18;2.05;;;3.40;99.90;;;;;;5120298;27;20019;-57
2022/02/01 09:33:38;;;;;;;10.05;3.42;;;3.40;99.90;;;;;;5118778;27;20103;-55
2022/02/01 09:36:06;;;;;;;8.95;2.95;;;3.50;99.90;;;;;;5120053;27;20588;-54
2022/02/01 09:38:32;;;;;;;7.35;2.65;;;3.50;99.90;;;;;;5119126;27;20049;-52
2022/02/01 09:40:59;;;;;;;9.85;2.22;;;3.50;99.90;;;;;;5120186;27;20038;-51
2022/02/01 09:43:24;;;;;;;10.32;2.72;;;3.50;99.90;;;;;;5099268;27;20504;-54
2022/02/01 09:45:55;;;;;;;9.95;3.33;;;3.50;99.90;;;;;;5120160;27;20046;-51
2022/02/01 09:48:21;;;;;;;10.10;2.95;;;3.50;99.90;;;;;;5119699;27;20071;-51
2022/02/01 09:50:48;;;;;;;4.93;2.83;;;3.50;99.90;;;;;;5101859;27;20602;-55
2022/02/01 09:53:13;;;;;;;7.22;2.78;;;3.50;99.90;;;;;;5119562;27;20027;-53
2022/02/01 09:55:39;;;;;;;15.63;3.15;;;3.50;99.90;;;;;;5119511;27;20030;-54
2022/02/01 09:58:05;;;;;;;7.45;2.42;;;3.40;99.90;;;;;;5119258;27;20015;-56
2022/02/01 10:00:36;;;;;;;6.68;2.78;;;3.40;99.90;;;;;;5119736;27;20023;-55
2022/02/01 10:03:03;;;;;;;6.65;1.88;;;3.40;99.90;;;;;;5118878;27;20031;-54
2022/02/01 10:05:28;;;;;;;5.55;2.25;;;3.40;99.90;;;;;;5119718;27;20106;-50
2022/02/01 10:07:56;;;;;;;5.28;2.42;;;3.30;99.90;;;;;;5119279;27;20565;-52
2022/02/01 10:10:28;;;;;;;6.57;2.95;;;3.30;99.90;;;;;;5119472;27;20106;-54
2022/02/01 10:13:03;;;;;;;10.02;3.25;;;3.30;99.90;;;;;;5119674;27;20027;-56
2022/02/01 10:15:33;;;;;;;12.98;3.67;;;3.30;99.90;;;;;;5119327;27;20490;-51
2022/02/01 10:18:03;;;;;;;10.93;3.92;;;3.20;99.90;;;;;;5119262;27;20015;-57
2022/02/01 10:20:42;;;;;;;9.07;3.70;;;3.30;99.90;;;;;;5109691;27;20030;-52
2022/02/01 10:23:25;;;;;;;6.30;3.40;;;3.20;99.90;;;;;;5117988;27;20540;-52
2022/02/01 10:26:18;;;;;;;8.10;3.58;;;3.30;99.90;;;;;;5119582;27;20060;-54
2022/02/01 10:31:36;;;;;;;9.18;4.22;;;3.20;99.90;;;;;;5117888;27;20039;-53
2022/02/01 10:34:27;;;;;;;10.75;4.10;;;3.20;99.90;;;;;;5118795;27;20103;-53
2022/02/01 10:36:57;;;;;;;6.88;4.28;;;3.20;99.90;;;;;;5118003;27;20506;-51
2022/02/01 10:39:25;;;;;;;6.93;5.38;;;3.20;99.90;;;;;;5118599;27;20023;-51
2022/02/01 10:42:12;;;;;;;9.65;5.63;;;3.30;99.90;;;;;;5119069;27;20110;-57
2022/02/01 10:45:00;;;;;;;13.05;5.45;;;3.30;99.90;;;;;;5119051;27;20031;-52
2022/02/01 10:47:36;;;;;;;7.32;5.78;;;3.30;99.90;;;;;;5118183;28;20027;-51
2022/02/01 10:50:03;;;;;;;;;;;3.30;99.90;;;;;;5118619;28;20047;-51
2022/02/01 10:52:33;;;;;;;8.70;6.20;;;3.30;99.90;;;;;;5119183;28;19949;-53
2022/02/01 10:55:00;;;;;;;9.20;5.95;;;3.40;99.90;;;;;;5100451;28;20042;-58
2022/02/01 10:57:26;;;;;;;10.38;5.90;;;3.40;99.90;;;;;;5117190;28;20019;-54
2022/02/01 10:59:52;;;;;;;7.85;5.45;;;3.40;99.90;;;;;;5117921;28;20048;-51
2022/02/01 11:02:18;;;;;;;8.00;5.43;;;3.40;99.90;;;;;;5117943;28;20120;-54
2022/02/01 11:04:45;;;;;;;6.88;5.40;;;3.40;99.90;;;;;;5117896;28;20015;-57
2022/02/01 11:07:11;;;;;;;8.40;6.15;;;3.40;99.90;;;;;;5116774;28;20016;-56
2022/02/01 11:09:37;;;;;;;7.65;5.32;;;3.40;99.90;;;;;;5099255;28;20126;-53
2022/02/01 11:12:09;;;;;;;6.82;5.80;;;3.50;99.90;;;;;;5099289;28;20042;-54
2022/02/01 11:14:43;;;;;;;7.18;5.15;;;3.50;99.90;;;;;;5117555;28;20016;-56
2022/02/01 11:17:14;;;;;;;7.18;5.28;;;3.50;99.90;;;;;;5118205;28;20038;-53
2022/02/01 11:19:54;;;;;;;6.13;5.32;;;3.50;99.90;;;;;;5118452;28;20328;-55
2022/02/01 11:22:35;;;;;;;8.35;5.97;;;3.60;99.90;;;;;;5117911;28;20067;-56
2022/02/01 11:25:25;;;;;;;9.75;6.38;;;3.60;99.90;;;;;;5118747;28;20735;-56
2022/02/01 11:30:57;;;;;;;7.50;5.43;;;3.70;99.90;;;;;;5118247;28;20042;-54
2022/02/01 11:33:35;;;;;;;6.07;5.30;;;3.70;99.90;;;;;;5107625;28;20093;-51
2022/02/01 11:36:06;;;;;;;7.90;5.43;;;3.70;99.90;;;;;;5118706;28;20087;-54
2022/02/01 11:38:32;;;;;;;9.32;5.82;;;3.80;99.90;;;;;;5118750;28;20058;-56
2022/02/01 11:41:04;;;;;;;6.05;5.22;;;3.80;99.90;;;;;;5118299;28;20050;-55
2022/02/01 11:43:30;;;;;;;6.70;5.50;;;3.80;99.90;;;;;;5118691;28;20066;-55
2022/02/01 11:46:01;;;;;;;6.65;4.70;;;3.80;99.90;;;;;;5119963;27;20102;-50
2022/02/01 11:48:29;;;;;;;5.70;4.20;;;3.90;99.90;;;;;;5121191;27;20036;-54
2022/02/01 11:51:00;;;;;;;6.32;4.25;;;3.90;99.90;;;;;;5103485;27;20019;-51
2022/02/01 11:53:31;;;;;;;5.07;4.57;;;3.90;99.90;;;;;;5121067;27;20087;-50
2022/02/01 11:55:58;;;;;;;5.47;4.40;;;4.00;99.90;;;;;;5121590;27;20432;-50
2022/02/01 11:58:32;;;;;;;6.72;4.30;;;4.00;99.90;;;;;;5121939;27;20123;-57
2022/02/01 12:00:59;;;;;;;4.55;3.80;;;4.00;99.90;;;;;;5104498;27;20030;-50
2022/02/01 12:03:38;;;;;;;7.35;4.65;;;4.10;99.90;;;;;;5121524;27;20027;-56
2022/02/01 12:06:08;;;;;;;5.15;4.47;;;4.10;99.90;;;;;;5121686;27;20069;-53
2022/02/01 12:08:41;;;;;;;4.97;4.07;;;4.20;99.90;;;;;;5122300;27;20410;-51
2022/02/01 12:11:08;;;;;;;5.10;3.50;;;4.20;99.90;;;;;;5122032;27;20020;-52
2022/02/01 12:13:35;;;;;;;4.40;3.38;;;4.30;99.90;;;;;;5120830;27;20039;-55
2022/02/01 12:16:05;;;;;;;7.90;3.30;;;4.30;99.90;;;;;;5121675;27;20023;-54
2022/02/01 19:45:51;;;;;;;23.17;5.07;;;5.60;99.90;;;;;;5119462;27;20394;-54
2022/02/01 19:48:19;;;;;;;23.88;5.65;;;5.80;99.90;;;;;;5136879;22;20108;-51
2022/02/01 19:50:48;;;;;;;25.48;5.60;;;5.80;99.90;;;;;;5074442;28;20035;-52
2022/02/01 19:53:14;;;;;;;18.73;4.75;;;5.80;99.90;;;;;;5073180;28;20502;-51
2022/02/01 19:55:43;;;;;;;19.92;4.68;;;5.80;99.90;;;;;;5075279;28;20110;-54
2022/02/01 19:58:12;;;;;;;19.42;5.25;;;5.80;99.90;;;;;;5075833;28;20194;-52
2022/02/01 20:00:53;;;;;;;24.50;7.15;;;5.80;99.90;;;;;;5074805;28;20027;-53
2022/02/01 20:03:20;;;;;;;22.25;6.13;;;5.80;99.90;;;;;;5075387;28;20028;-51
2022/02/01 20:05:47;;;;;;;22.95;6.35;;;5.80;99.90;;;;;;5076285;28;20020;-52
2022/02/01 20:08:14;;;;;;;26.83;7.13;;;5.80;99.90;;;;;;5075865;28;20028;-51
2022/02/01 20:10:41;;;;;;;27.08;7.53;;;5.80;99.90;;;;;;5075231;28;20101;-52
2022/02/01 20:13:07;;;;;;;20.98;5.70;;;5.80;99.90;;;;;;5074981;28;20101;-53
2022/02/01 20:15:33;;;;;;;27.35;6.28;;;5.80;99.90;;;;;;5076212;28;20377;-53
2022/02/01 20:17:59;;;;;;;27.27;7.18;;;5.90;99.90;;;;;;5075614;28;20047;-52
2022/02/01 20:20:28;;;;;;;28.63;5.80;;;5.90;99.90;;;;;;5076156;28;20460;-51
2022/02/01 20:22:56;;;;;;;32.08;5.75;;;5.80;99.90;;;;;;5074715;28;20025;-51
2022/02/01 20:25:24;;;;;;;24.33;5.32;;;5.80;99.90;;;;;;5076999;28;20029;-52
2022/02/01 20:27:50;;;;;;;24.33;6.32;;;5.80;99.90;;;;;;5075943;28;20078;-53
2022/02/01 20:30:16;;;;;;;24.30;4.97;;;5.80;99.90;;;;;;5075606;28;20021;-53
2022/02/01 20:32:42;;;;;;;26.25;6.00;;;5.80;99.90;;;;;;5075482;28;20086;-52
2022/02/01 20:35:10;;;;;;;20.08;5.57;;;5.80;99.90;;;;;;5073512;28;20024;-52
2022/02/01 20:37:38;;;;;;;24.73;5.88;;;5.80;99.90;;;;;;5077084;28;20036;-50
2022/02/01 20:40:08;;;;;;;27.40;5.97;;;5.80;99.90;;;;;;5076416;28;20110;-52
2022/02/01 20:42:35;;;;;;;25.55;6.35;;;5.80;99.90;;;;;;5075591;28;20059;-55
2022/02/01 20:45:01;;;;;;;26.25;5.25;;;5.80;99.90;;;;;;5071576;28;20021;-55
2022/02/01 20:47:27;;;;;;;24.55;5.82;;;5.80;99.90;;;;;;5060240;28;20039;-50
2022/02/01 20:49:52;;;;;;;27.50;5.60;;;5.90;99.90;;;;;;5060853;28;20450;-52
2022/02/01 20:52:18;;;;;;;33.90;8.40;;;5.80;99.90;;;;;;5061842;28;20094;-52
2022/02/01 20:54:43;;;;;;;25.88;5.38;;;5.80;99.90;;;;;;5061679;28;20416;-52
2022/02/01 20:57:14;;;;;;;23.25;5.60;;;5.80;99.90;;;;;;5061212;28;20033;-50
2022/02/01 20:59:41;;;;;;;36.78;6.40;;;5.80;99.90;;;;;;5061832;28;20119;-53
2022/02/01 21:02:10;;;;;;;25.85;5.10;;;5.80;99.90;;;;;;5062044;28;20078;-51
2022/02/01 21:04:36;;;;;;;26.85;6.22;;;5.80;99.90;;;;;;5060196;28;20520;-53
2022/02/01 21:07:03;;;;;;;21.98;5.43;;;5.80;99.90;;;;;;5061664;28;20055;-51
2022/02/01 21:09:30;;;;;;;29.80;6.50;;;5.80;99.90;;;;;;5060851;28;20078;-52
2022/02/01 21:11:55;;;;;;;31.38;8.23;;;5.80;99.90;;;;;;5060519;28;20025;-53
2022/02/01 21:14:21;;;;;;;28.95;5.85;;;5.80;99.90;;;;;;5061655;28;20085;-51
2022/02/01 21:16:47;;;;;;;24.63;5.95;;;5.80;99.90;;;;;;5061956;28;20114;-53
2022/02/01 21:19:13;;;;;;;25.35;5.50;;;5.90;99.90;;;;;;5062450;28;20031;-51
2022/02/01 21:21:41;;;;;;;24.42;6.43;;;5.90;99.90;;;;;;5062657;28;20024;-52
2022/02/01 21:24:08;;;;;;;26.33;5.95;;;5.90;99.90;;;;;;5062987;28;20029;-51
2022/02/01 21:26:39;;;;;;;21.90;5.03;;;5.90;99.90;;;;;;5063500;28;20024;-55
2022/02/01 21:29:05;;;;;;;23.45;6.82;;;5.90;99.90;;;;;;5062248;28;20009;-52
2022/02/01 21:31:30;;;;;;;21.27;5.85;;;5.90;99.90;;;;;;5061966;28;20032;-52
2022/02/01 21:33:56;;;;;;;24.83;4.35;;;5.80;99.90;;;;;;5060508;28;20043;-53
2022/02/01 21:36:22;;;;;;;26.27;5.95;;;5.90;99.90;;;;;;5061972;28;20450;-53
2022/02/01 21:38:47;;;;;;;23.00;5.85;;;5.90;99.90;;;;;;5060604;28;20056;-53
2022/02/01 21:41:14;;;;;;;21.38;6.50;;;5.90;99.90;;;;;;5060557;28;20037;-52
2022/02/01 21:43:39;;;;;;;20.10;5.75;;;5.80;99.90;;;;;;5060077;28;20028;-53
2022/02/01 21:46:05;;;;;;;27.05;5.90;;;5.80;99.90;;;;;;5061425;28;20017;-51
2022/02/01 21:48:31;;;;;;;24.50;5.03;;;5.80;99.90;;;;;;5059845;28;20036;-53
2022/02/01 21:50:56;;;;;;;23.45;5.38;;;5.90;99.90;;;;;;5060683;28;20032;-54
2022/02/01 21:53:22;;;;;;;28.63;6.75;;;5.80;99.90;;;;;;5061292;28;20028;-51